Portada
METAR-TAF:

METAR-TAF

Aeropuertos :

Damasco, Siria

Aeropuerto Internacional de Damasco

latitud: 33-25N, longitud: 036-31E, altitud: 608 m

Observación

El informe se hizo hace 48 minutos, a las 05:00 UTC
Viento 12 kt del suroeste
Temperatura 22°C
Humedad 73%
Presión 1009 hPa
Visibilidad 10 km o más
sin nubes por debajo de 1500 m y sin presencia de cumulonimbus.

METAR: OSDI 170500Z 22012KT CAVOK 22/17 Q1009

Hora: 08:48 (05:48 UTC)

Pronóstico

Pronóstico válido del 17 a las 06 UTC al 18 a las 12 UTC
Viento 10 kt del suroeste
Visibilidad 10 km o más
sin nubes por debajo de 1500 m y sin presencia de cumulonimbus.
Temporalmente
del 17 a las 12 UTC al 17 a las 18 UTC
Viento 15 kt del oeste-suroeste con ráfagas de 25 kt
Visibilidad: 8000 m
Escasas nubes a una altura de 3000 ft

TAF: OSDI 1706/1812 22010KT CAVOK TEMPO 1712/1718 24015G25KT 8000 FEW030

Observaciones y pronósticos meteorológicos de más de 4000 aeropuertos (mensajes METAR y TAF).

Los puntos amarillos y rojos representan las estaciones disponibles.

Ponga el ratón en el punto deseado para ver el nombre de la estación.

Haga clic para ver las observaciones y los pronósticos meteorológicos.

Para cambiar el mapa : haga clic en los botones verdes con una cruz de color negro para hacer un zoom, en el botón verde con un guión para alejar o en las flechas verdes para mapas adyacentes.


METAR-TAF: